KMLB/MLB METAR and TAF weather

Enter ICAO airport designator
Station Type Date Time Source
KMLB METAR 2020/11/27 02:53 UTC NOAA

KMLB 270253Z 00000KT 9SM OVC065 21/21 A3013 RMK AO2 SLP202 T02060206 51011 $


Station Type Date Time Source
KMLB Decoded METAR 2020/11/27 02:53 UTC NOAA

MELBOURNE INTERNATIONAL, FL, United States (KMLB) 28-06N 080-39W 10M
Nov 26, 2020 - 09:53 PM EST / 2020.11.27 0253 UTC
Wind: Calm:0
Visibility: 9 mile(s):0
Sky conditions: overcast
Temperature: 69.1 F (20.6 C)
Dew Point: 69.1 F (20.6 C)
Relative Humidity: 100%
Pressure (altimeter): 30.13 in. Hg (1020 hPa)
Pressure tendency: 0.03 inches (1.1 hPa) higher than three hours ago
ob: KMLB 270253Z 00000KT 9SM OVC065 21/21 A3013 RMK AO2 SLP202 T02060206 51011
cycle: 3

Station Type Date Time Source
KMLB TAF 2020/11/26 18:45 UTC NOAA

TAF KMLB 261743Z 2618/2718 11012KT P6SM SCT050
FM270400 VRB03KT P6SM SCT040 SCT250
TEMPO 2710/2712 4SM BR SCT010
FM271400 08005KT P6SM SCT040 SCT120 SCT250

Example: see airport list